sensor_id;sensor_type;location;lat;lon;timestamp;P1;durP1;ratioP1;P2;durP2;ratioP2
47599;SDS011;33323;52.124;6.018;2023-07-31T00:01:23;0.77;;;0.30;;
47599;SDS011;33323;52.124;6.018;2023-07-31T00:03:51;0.50;;;0.20;;
47599;SDS011;33323;52.124;6.018;2023-07-31T00:06:18;1.35;;;0.30;;
47599;SDS011;33323;52.124;6.018;2023-07-31T00:08:45;0.65;;;0.30;;
47599;SDS011;33323;52.124;6.018;2023-07-31T00:11:12;0.73;;;0.35;;
47599;SDS011;33323;52.124;6.018;2023-07-31T00:13:39;0.75;;;0.20;;
47599;SDS011;33323;52.124;6.018;2023-07-31T00:16:06;0.20;;;0.20;;
47599;SDS011;33323;52.124;6.018;2023-07-31T00:18:33;1.75;;;0.20;;
47599;SDS011;33323;52.124;6.018;2023-07-31T00:21:00;0.75;;;0.20;;
47599;SDS011;33323;52.124;6.018;2023-07-31T00:23:27;1.23;;;0.20;;
47599;SDS011;33323;52.124;6.018;2023-07-31T00:25:54;0.57;;;0.20;;
47599;SDS011;33323;52.124;6.018;2023-07-31T00:28:21;1.92;;;0.20;;
47599;SDS011;33323;52.124;6.018;2023-07-31T00:30:48;1.55;;;0.22;;
47599;SDS011;33323;52.124;6.018;2023-07-31T00:33:15;1.42;;;0.30;;
47599;SDS011;33323;52.124;6.018;2023-07-31T00:35:42;1.35;;;0.25;;
47599;SDS011;33323;52.124;6.018;2023-07-31T00:38:09;2.40;;;0.40;;
47599;SDS011;33323;52.124;6.018;2023-07-31T00:40:36;0.30;;;0.13;;
47599;SDS011;33323;52.124;6.018;2023-07-31T00:43:04;0.60;;;0.10;;
47599;SDS011;33323;52.124;6.018;2023-07-31T00:45:31;0.10;;;0.10;;
47599;SDS011;33323;52.124;6.018;2023-07-31T00:47:59;0.55;;;0.20;;
47599;SDS011;33323;52.124;6.018;2023-07-31T00:50:26;0.20;;;0.10;;
47599;SDS011;33323;52.124;6.018;2023-07-31T00:52:54;0.57;;;0.20;;
47599;SDS011;33323;52.124;6.018;2023-07-31T00:55:21;1.35;;;0.10;;
47599;SDS011;33323;52.124;6.018;2023-07-31T00:57:49;1.63;;;0.10;;
47599;SDS011;33323;52.124;6.018;2023-07-31T01:00:18;0.20;;;0.20;;
47599;SDS011;33323;52.124;6.018;2023-07-31T01:02:45;0.20;;;0.10;;
47599;SDS011;33323;52.124;6.018;2023-07-31T01:05:12;0.30;;;0.20;;
47599;SDS011;33323;52.124;6.018;2023-07-31T01:07:56;1.35;;;0.90;;
47599;SDS011;33323;52.124;6.018;2023-07-31T01:10:39;1.35;;;0.70;;
47599;SDS011;33323;52.124;6.018;2023-07-31T01:13:26;2.58;;;1.38;;
47599;SDS011;33323;52.124;6.018;2023-07-31T01:15:54;5.47;;;2.50;;
47599;SDS011;33323;52.124;6.018;2023-07-31T01:18:21;9.13;;;3.33;;
47599;SDS011;33323;52.124;6.018;2023-07-31T01:20:53;6.80;;;3.63;;
47599;SDS011;33323;52.124;6.018;2023-07-31T01:23:35;7.28;;;2.83;;
47599;SDS011;33323;52.124;6.018;2023-07-31T01:26:34;8.75;;;3.67;;
47599;SDS011;33323;52.124;6.018;2023-07-31T01:29:20;11.52;;;4.32;;
47599;SDS011;33323;52.124;6.018;2023-07-31T01:31:57;14.05;;;4.78;;
47599;SDS011;33323;52.124;6.018;2023-07-31T01:34:29;14.23;;;5.45;;
47599;SDS011;33323;52.124;6.018;2023-07-31T01:36:57;14.05;;;5.65;;
47599;SDS011;33323;52.124;6.018;2023-07-31T01:39:24;14.07;;;5.85;;
47599;SDS011;33323;52.124;6.018;2023-07-31T01:41:51;15.85;;;5.93;;
47599;SDS011;33323;52.124;6.018;2023-07-31T01:44:19;18.15;;;6.80;;
47599;SDS011;33323;52.124;6.018;2023-07-31T01:46:46;23.75;;;7.38;;
47599;SDS011;33323;52.124;6.018;2023-07-31T01:49:14;21.58;;;6.25;;
47599;SDS011;33323;52.124;6.018;2023-07-31T01:51:41;13.77;;;5.88;;
47599;SDS011;33323;52.124;6.018;2023-07-31T01:54:08;14.98;;;7.45;;
47599;SDS011;33323;52.124;6.018;2023-07-31T01:56:35;17.40;;;7.30;;
47599;SDS011;33323;52.124;6.018;2023-07-31T01:59:03;15.75;;;6.63;;
47599;SDS011;33323;52.124;6.018;2023-07-31T02:01:30;14.50;;;5.97;;
47599;SDS011;33323;52.124;6.018;2023-07-31T02:03:57;14.55;;;6.85;;
47599;SDS011;33323;52.124;6.018;2023-07-31T02:06:25;18.70;;;8.20;;
47599;SDS011;33323;52.124;6.018;2023-07-31T02:08:52;21.92;;;7.65;;
47599;SDS011;33323;52.124;6.018;2023-07-31T02:11:19;19.20;;;6.72;;
47599;SDS011;33323;52.124;6.018;2023-07-31T02:13:48;16.08;;;6.13;;
47599;SDS011;33323;52.124;6.018;2023-07-31T02:16:15;18.40;;;6.00;;
47599;SDS011;33323;52.124;6.018;2023-07-31T02:18:43;12.85;;;6.47;;
47599;SDS011;33323;52.124;6.018;2023-07-31T02:21:10;12.30;;;5.07;;
47599;SDS011;33323;52.124;6.018;2023-07-31T02:23:37;14.32;;;6.30;;
47599;SDS011;33323;52.124;6.018;2023-07-31T02:26:04;16.05;;;6.15;;
47599;SDS011;33323;52.124;6.018;2023-07-31T02:28:31;17.92;;;6.68;;
47599;SDS011;33323;52.124;6.018;2023-07-31T02:30:58;13.98;;;5.75;;
47599;SDS011;33323;52.124;6.018;2023-07-31T02:33:26;15.00;;;6.22;;
47599;SDS011;33323;52.124;6.018;2023-07-31T02:35:53;16.02;;;5.35;;
47599;SDS011;33323;52.124;6.018;2023-07-31T02:38:21;14.93;;;5.60;;
47599;SDS011;33323;52.124;6.018;2023-07-31T02:40:48;10.20;;;4.32;;
47599;SDS011;33323;52.124;6.018;2023-07-31T02:43:15;19.52;;;5.47;;
47599;SDS011;33323;52.124;6.018;2023-07-31T02:45:42;9.73;;;4.03;;
47599;SDS011;33323;52.124;6.018;2023-07-31T02:48:10;11.13;;;3.83;;
47599;SDS011;33323;52.124;6.018;2023-07-31T02:50:37;9.55;;;4.10;;
47599;SDS011;33323;52.124;6.018;2023-07-31T02:53:04;11.18;;;4.68;;
47599;SDS011;33323;52.124;6.018;2023-07-31T02:55:31;14.07;;;4.15;;
47599;SDS011;33323;52.124;6.018;2023-07-31T02:57:58;11.45;;;4.95;;
47599;SDS011;33323;52.124;6.018;2023-07-31T03:00:25;13.77;;;4.22;;
47599;SDS011;33323;52.124;6.018;2023-07-31T03:02:52;12.18;;;4.05;;
47599;SDS011;33323;52.124;6.018;2023-07-31T03:05:19;12.50;;;4.10;;
47599;SDS011;33323;52.124;6.018;2023-07-31T03:07:47;12.02;;;4.25;;
47599;SDS011;33323;52.124;6.018;2023-07-31T03:10:14;9.65;;;4.60;;
47599;SDS011;33323;52.124;6.018;2023-07-31T03:12:41;13.75;;;5.45;;
47599;SDS011;33323;52.124;6.018;2023-07-31T03:15:08;13.45;;;4.82;;
47599;SDS011;33323;52.124;6.018;2023-07-31T03:17:36;13.65;;;5.18;;
47599;SDS011;33323;52.124;6.018;2023-07-31T03:20:03;11.15;;;4.20;;
47599;SDS011;33323;52.124;6.018;2023-07-31T03:22:31;14.65;;;4.55;;
47599;SDS011;33323;52.124;6.018;2023-07-31T03:24:58;19.08;;;6.30;;
47599;SDS011;33323;52.124;6.018;2023-07-31T03:27:25;14.75;;;5.47;;
47599;SDS011;33323;52.124;6.018;2023-07-31T03:29:52;18.27;;;6.55;;
47599;SDS011;33323;52.124;6.018;2023-07-31T03:32:19;17.80;;;5.18;;
47599;SDS011;33323;52.124;6.018;2023-07-31T03:34:47;25.20;;;7.53;;
47599;SDS011;33323;52.124;6.018;2023-07-31T03:37:14;21.25;;;6.38;;
47599;SDS011;33323;52.124;6.018;2023-07-31T03:39:41;22.05;;;8.18;;
47599;SDS011;33323;52.124;6.018;2023-07-31T03:42:08;17.52;;;6.13;;
47599;SDS011;33323;52.124;6.018;2023-07-31T03:44:35;15.75;;;7.10;;
47599;SDS011;33323;52.124;6.018;2023-07-31T03:47:04;16.13;;;6.55;;
47599;SDS011;33323;52.124;6.018;2023-07-31T03:49:31;23.92;;;8.13;;
47599;SDS011;33323;52.124;6.018;2023-07-31T03:51:59;20.30;;;6.43;;
47599;SDS011;33323;52.124;6.018;2023-07-31T03:54:26;22.27;;;7.18;;
47599;SDS011;33323;52.124;6.018;2023-07-31T03:56:53;18.10;;;6.85;;
47599;SDS011;33323;52.124;6.018;2023-07-31T03:59:20;21.98;;;7.88;;
47599;SDS011;33323;52.124;6.018;2023-07-31T04:01:46;30.50;;;8.32;;
47599;SDS011;33323;52.124;6.018;2023-07-31T04:04:13;24.33;;;7.13;;
47599;SDS011;33323;52.124;6.018;2023-07-31T04:06:40;24.77;;;6.82;;
47599;SDS011;33323;52.124;6.018;2023-07-31T04:09:07;18.90;;;7.20;;
47599;SDS011;33323;52.124;6.018;2023-07-31T04:11:34;24.85;;;7.72;;
47599;SDS011;33323;52.124;6.018;2023-07-31T04:14:01;19.60;;;6.25;;
47599;SDS011;33323;52.124;6.018;2023-07-31T04:16:29;17.90;;;5.63;;
47599;SDS011;33323;52.124;6.018;2023-07-31T04:18:56;16.50;;;6.53;;
47599;SDS011;33323;52.124;6.018;2023-07-31T04:21:23;23.15;;;6.15;;
47599;SDS011;33323;52.124;6.018;2023-07-31T04:23:50;14.90;;;5.50;;
47599;SDS011;33323;52.124;6.018;2023-07-31T04:26:17;18.98;;;5.60;;
47599;SDS011;33323;52.124;6.018;2023-07-31T04:28:44;22.38;;;6.38;;
47599;SDS011;33323;52.124;6.018;2023-07-31T04:31:11;27.35;;;9.00;;
47599;SDS011;33323;52.124;6.018;2023-07-31T04:33:38;19.80;;;6.05;;
47599;SDS011;33323;52.124;6.018;2023-07-31T04:36:05;18.00;;;7.82;;
47599;SDS011;33323;52.124;6.018;2023-07-31T04:38:32;23.42;;;5.97;;
47599;SDS011;33323;52.124;6.018;2023-07-31T04:40:59;18.38;;;5.68;;
47599;SDS011;33323;52.124;6.018;2023-07-31T04:43:26;22.17;;;6.97;;
47599;SDS011;33323;52.124;6.018;2023-07-31T04:45:54;16.15;;;6.43;;
47599;SDS011;33323;52.124;6.018;2023-07-31T04:48:20;20.10;;;6.95;;
47599;SDS011;33323;52.124;6.018;2023-07-31T04:50:48;17.95;;;6.63;;
47599;SDS011;33323;52.124;6.018;2023-07-31T04:53:15;16.45;;;5.63;;
47599;SDS011;33323;52.124;6.018;2023-07-31T04:55:42;16.38;;;6.43;;
47599;SDS011;33323;52.124;6.018;2023-07-31T04:58:09;22.15;;;5.57;;
47599;SDS011;33323;52.124;6.018;2023-07-31T05:00:36;16.25;;;6.88;;
47599;SDS011;33323;52.124;6.018;2023-07-31T05:03:03;20.15;;;5.97;;
47599;SDS011;33323;52.124;6.018;2023-07-31T05:05:31;26.80;;;6.85;;
47599;SDS011;33323;52.124;6.018;2023-07-31T05:07:58;20.05;;;6.15;;
47599;SDS011;33323;52.124;6.018;2023-07-31T05:10:26;21.83;;;6.07;;
47599;SDS011;33323;52.124;6.018;2023-07-31T05:12:53;20.92;;;7.18;;
47599;SDS011;33323;52.124;6.018;2023-07-31T05:15:21;23.92;;;6.90;;
47599;SDS011;33323;52.124;6.018;2023-07-31T05:17:48;18.92;;;6.90;;
47599;SDS011;33323;52.124;6.018;2023-07-31T05:20:15;19.52;;;5.32;;
47599;SDS011;33323;52.124;6.018;2023-07-31T05:22:42;19.60;;;6.60;;
47599;SDS011;33323;52.124;6.018;2023-07-31T05:25:09;15.00;;;5.18;;
47599;SDS011;33323;52.124;6.018;2023-07-31T05:27:36;18.92;;;6.10;;
47599;SDS011;33323;52.124;6.018;2023-07-31T05:30:04;15.85;;;5.25;;
47599;SDS011;33323;52.124;6.018;2023-07-31T05:32:32;17.95;;;5.30;;
47599;SDS011;33323;52.124;6.018;2023-07-31T05:34:59;14.77;;;6.00;;
47599;SDS011;33323;52.124;6.018;2023-07-31T05:37:26;20.77;;;5.57;;
47599;SDS011;33323;52.124;6.018;2023-07-31T05:39:53;17.23;;;6.30;;
47599;SDS011;33323;52.124;6.018;2023-07-31T05:42:20;13.35;;;6.30;;
47599;SDS011;33323;52.124;6.018;2023-07-31T05:44:47;15.95;;;7.22;;
47599;SDS011;33323;52.124;6.018;2023-07-31T05:47:14;13.50;;;6.88;;
47599;SDS011;33323;52.124;6.018;2023-07-31T05:49:42;17.27;;;6.18;;
47599;SDS011;33323;52.124;6.018;2023-07-31T05:52:09;20.65;;;6.57;;
47599;SDS011;33323;52.124;6.018;2023-07-31T05:54:36;15.77;;;6.00;;
47599;SDS011;33323;52.124;6.018;2023-07-31T05:57:03;14.48;;;5.80;;
47599;SDS011;33323;52.124;6.018;2023-07-31T05:59:30;16.55;;;6.20;;
47599;SDS011;33323;52.124;6.018;2023-07-31T06:01:59;20.73;;;6.70;;
47599;SDS011;33323;52.124;6.018;2023-07-31T06:04:26;17.90;;;6.40;;
47599;SDS011;33323;52.124;6.018;2023-07-31T06:06:53;11.73;;;5.75;;
47599;SDS011;33323;52.124;6.018;2023-07-31T06:09:20;11.02;;;5.85;;
47599;SDS011;33323;52.124;6.018;2023-07-31T06:11:47;11.82;;;5.22;;
47599;SDS011;33323;52.124;6.018;2023-07-31T06:14:15;10.60;;;5.03;;
47599;SDS011;33323;52.124;6.018;2023-07-31T06:16:42;10.23;;;4.05;;
47599;SDS011;33323;52.124;6.018;2023-07-31T06:19:10;8.18;;;3.50;;
47599;SDS011;33323;52.124;6.018;2023-07-31T06:21:38;7.25;;;3.45;;
47599;SDS011;33323;52.124;6.018;2023-07-31T06:24:05;9.15;;;3.35;;
47599;SDS011;33323;52.124;6.018;2023-07-31T06:26:32;6.55;;;2.90;;
47599;SDS011;33323;52.124;6.018;2023-07-31T06:28:59;6.53;;;3.70;;
47599;SDS011;33323;52.124;6.018;2023-07-31T06:31:26;6.72;;;3.08;;
47599;SDS011;33323;52.124;6.018;2023-07-31T06:33:54;6.38;;;3.10;;
47599;SDS011;33323;52.124;6.018;2023-07-31T06:36:21;5.93;;;2.97;;
47599;SDS011;33323;52.124;6.018;2023-07-31T06:38:48;6.38;;;2.97;;
47599;SDS011;33323;52.124;6.018;2023-07-31T06:41:15;5.80;;;3.45;;
47599;SDS011;33323;52.124;6.018;2023-07-31T06:43:42;5.30;;;2.47;;
47599;SDS011;33323;52.124;6.018;2023-07-31T06:46:09;7.07;;;2.90;;
47599;SDS011;33323;52.124;6.018;2023-07-31T06:48:37;7.60;;;2.95;;
47599;SDS011;33323;52.124;6.018;2023-07-31T06:51:04;6.05;;;2.67;;
47599;SDS011;33323;52.124;6.018;2023-07-31T06:53:31;6.63;;;2.97;;
47599;SDS011;33323;52.124;6.018;2023-07-31T06:55:58;6.82;;;2.88;;
47599;SDS011;33323;52.124;6.018;2023-07-31T06:58:25;6.28;;;3.22;;
47599;SDS011;33323;52.124;6.018;2023-07-31T07:00:52;6.97;;;3.25;;
47599;SDS011;33323;52.124;6.018;2023-07-31T07:03:19;6.35;;;2.55;;
47599;SDS011;33323;52.124;6.018;2023-07-31T07:05:46;7.78;;;2.70;;
47599;SDS011;33323;52.124;6.018;2023-07-31T07:08:14;5.40;;;2.42;;
47599;SDS011;33323;52.124;6.018;2023-07-31T07:10:41;7.20;;;2.60;;
47599;SDS011;33323;52.124;6.018;2023-07-31T07:13:08;4.10;;;2.30;;
47599;SDS011;33323;52.124;6.018;2023-07-31T07:15:35;4.35;;;2.35;;
47599;SDS011;33323;52.124;6.018;2023-07-31T07:18:03;7.40;;;3.10;;
47599;SDS011;33323;52.124;6.018;2023-07-31T07:20:30;3.97;;;1.77;;
47599;SDS011;33323;52.124;6.018;2023-07-31T07:22:57;4.50;;;1.70;;
47599;SDS011;33323;52.124;6.018;2023-07-31T07:25:24;3.58;;;1.70;;
47599;SDS011;33323;52.124;6.018;2023-07-31T07:27:51;2.83;;;1.73;;
47599;SDS011;33323;52.124;6.018;2023-07-31T07:30:18;4.07;;;2.47;;
47599;SDS011;33323;52.124;6.018;2023-07-31T07:32:46;4.22;;;1.50;;
47599;SDS011;33323;52.124;6.018;2023-07-31T07:35:13;3.45;;;1.40;;
47599;SDS011;33323;52.124;6.018;2023-07-31T07:37:41;2.30;;;1.30;;
47599;SDS011;33323;52.124;6.018;2023-07-31T07:40:08;2.45;;;1.20;;
47599;SDS011;33323;52.124;6.018;2023-07-31T07:42:36;4.10;;;1.17;;
47599;SDS011;33323;52.124;6.018;2023-07-31T07:45:03;3.05;;;0.90;;
47599;SDS011;33323;52.124;6.018;2023-07-31T07:47:32;2.78;;;0.95;;
47599;SDS011;33323;52.124;6.018;2023-07-31T07:49:59;1.50;;;0.70;;
47599;SDS011;33323;52.124;6.018;2023-07-31T07:52:26;2.72;;;0.90;;
47599;SDS011;33323;52.124;6.018;2023-07-31T07:54:55;1.50;;;0.80;;
47599;SDS011;33323;52.124;6.018;2023-07-31T07:57:22;1.33;;;0.95;;
47599;SDS011;33323;52.124;6.018;2023-07-31T07:59:49;1.35;;;0.60;;
47599;SDS011;33323;52.124;6.018;2023-07-31T08:02:17;1.20;;;0.75;;
47599;SDS011;33323;52.124;6.018;2023-07-31T08:04:44;2.00;;;1.40;;
47599;SDS011;33323;52.124;6.018;2023-07-31T08:07:11;1.25;;;0.82;;
47599;SDS011;33323;52.124;6.018;2023-07-31T08:09:39;1.02;;;0.80;;
47599;SDS011;33323;52.124;6.018;2023-07-31T08:12:07;1.05;;;0.82;;
47599;SDS011;33323;52.124;6.018;2023-07-31T08:14:34;1.92;;;1.08;;
47599;SDS011;33323;52.124;6.018;2023-07-31T08:17:02;2.38;;;1.25;;
47599;SDS011;33323;52.124;6.018;2023-07-31T08:19:30;2.50;;;1.17;;
47599;SDS011;33323;52.124;6.018;2023-07-31T08:21:57;2.67;;;1.77;;
47599;SDS011;33323;52.124;6.018;2023-07-31T08:24:25;1.40;;;1.00;;
47599;SDS011;33323;52.124;6.018;2023-07-31T08:26:52;1.23;;;0.90;;
47599;SDS011;33323;52.124;6.018;2023-07-31T08:29:19;1.73;;;1.00;;
47599;SDS011;33323;52.124;6.018;2023-07-31T08:31:47;1.52;;;1.10;;
47599;SDS011;33323;52.124;6.018;2023-07-31T08:34:14;1.00;;;0.80;;
47599;SDS011;33323;52.124;6.018;2023-07-31T08:36:41;0.80;;;0.70;;
47599;SDS011;33323;52.124;6.018;2023-07-31T08:39:10;1.27;;;0.80;;
47599;SDS011;33323;52.124;6.018;2023-07-31T08:41:38;1.70;;;1.00;;
47599;SDS011;33323;52.124;6.018;2023-07-31T08:44:08;2.53;;;1.00;;
47599;SDS011;33323;52.124;6.018;2023-07-31T08:46:37;1.30;;;1.20;;
47599;SDS011;33323;52.124;6.018;2023-07-31T08:49:05;1.67;;;1.30;;
47599;SDS011;33323;52.124;6.018;2023-07-31T08:51:34;4.57;;;1.05;;
47599;SDS011;33323;52.124;6.018;2023-07-31T08:54:03;1.30;;;1.20;;
47599;SDS011;33323;52.124;6.018;2023-07-31T08:56:33;1.20;;;1.10;;
47599;SDS011;33323;52.124;6.018;2023-07-31T08:59:01;1.25;;;0.98;;
47599;SDS011;33323;52.124;6.018;2023-07-31T09:01:31;1.63;;;1.17;;
47599;SDS011;33323;52.124;6.018;2023-07-31T09:04:09;1.30;;;0.80;;
47599;SDS011;33323;52.124;6.018;2023-07-31T09:06:37;1.17;;;0.95;;
47599;SDS011;33323;52.124;6.018;2023-07-31T09:09:06;0.95;;;0.70;;
47599;SDS011;33323;52.124;6.018;2023-07-31T09:11:33;1.85;;;0.80;;
47599;SDS011;33323;52.124;6.018;2023-07-31T09:14:00;1.30;;;1.00;;
47599;SDS011;33323;52.124;6.018;2023-07-31T09:16:35;1.05;;;0.80;;
47599;SDS011;33323;52.124;6.018;2023-07-31T09:19:03;1.02;;;0.80;;
47599;SDS011;33323;52.124;6.018;2023-07-31T09:21:31;1.30;;;0.88;;
47599;SDS011;33323;52.124;6.018;2023-07-31T09:23:59;1.42;;;0.70;;
47599;SDS011;33323;52.124;6.018;2023-07-31T09:26:33;1.67;;;0.85;;
47599;SDS011;33323;52.124;6.018;2023-07-31T09:29:06;0.80;;;0.70;;
47599;SDS011;33323;52.124;6.018;2023-07-31T09:31:45;1.17;;;1.02;;
47599;SDS011;33323;52.124;6.018;2023-07-31T09:34:12;2.50;;;1.10;;
47599;SDS011;33323;52.124;6.018;2023-07-31T09:36:43;1.95;;;1.10;;
47599;SDS011;33323;52.124;6.018;2023-07-31T09:39:17;1.63;;;1.20;;
47599;SDS011;33323;52.124;6.018;2023-07-31T09:41:56;2.03;;;1.35;;
47599;SDS011;33323;52.124;6.018;2023-07-31T09:44:39;1.75;;;1.15;;
47599;SDS011;33323;52.124;6.018;2023-07-31T09:47:23;1.70;;;1.60;;
47599;SDS011;33323;52.124;6.018;2023-07-31T09:49:52;2.40;;;1.60;;
47599;SDS011;33323;52.124;6.018;2023-07-31T09:52:19;2.13;;;1.60;;
47599;SDS011;33323;52.124;6.018;2023-07-31T09:54:46;2.05;;;1.85;;
47599;SDS011;33323;52.124;6.018;2023-07-31T09:57:14;2.42;;;1.75;;
47599;SDS011;33323;52.124;6.018;2023-07-31T09:59:45;3.65;;;2.42;;
47599;SDS011;33323;52.124;6.018;2023-07-31T10:02:15;3.67;;;2.42;;
47599;SDS011;33323;52.124;6.018;2023-07-31T10:04:49;5.75;;;3.40;;
47599;SDS011;33323;52.124;6.018;2023-07-31T10:07:17;4.32;;;2.92;;
47599;SDS011;33323;52.124;6.018;2023-07-31T10:09:47;4.25;;;3.30;;
47599;SDS011;33323;52.124;6.018;2023-07-31T10:12:15;4.50;;;3.65;;
47599;SDS011;33323;52.124;6.018;2023-07-31T10:14:45;4.72;;;4.25;;
47599;SDS011;33323;52.124;6.018;2023-07-31T10:17:13;4.28;;;3.78;;
47599;SDS011;33323;52.124;6.018;2023-07-31T10:19:41;8.00;;;5.10;;
47599;SDS011;33323;52.124;6.018;2023-07-31T10:22:10;7.57;;;5.03;;
47599;SDS011;33323;52.124;6.018;2023-07-31T10:24:39;6.22;;;4.25;;
47599;SDS011;33323;52.124;6.018;2023-07-31T10:27:09;6.30;;;5.03;;
47599;SDS011;33323;52.124;6.018;2023-07-31T10:29:37;11.52;;;6.38;;
47599;SDS011;33323;52.124;6.018;2023-07-31T10:32:07;6.60;;;5.72;;
47599;SDS011;33323;52.124;6.018;2023-07-31T10:34:37;7.30;;;5.82;;
47599;SDS011;33323;52.124;6.018;2023-07-31T10:40:04;9.23;;;5.53;;
47599;SDS011;33323;52.124;6.018;2023-07-31T10:42:34;10.25;;;6.03;;
47599;SDS011;33323;52.124;6.018;2023-07-31T10:45:11;11.80;;;6.53;;
47599;SDS011;33323;52.124;6.018;2023-07-31T10:47:45;10.25;;;6.13;;
47599;SDS011;33323;52.124;6.018;2023-07-31T10:50:14;10.65;;;6.35;;
47599;SDS011;33323;52.124;6.018;2023-07-31T10:52:49;9.70;;;6.85;;
47599;SDS011;33323;52.124;6.018;2023-07-31T10:58:09;10.30;;;7.03;;
47599;SDS011;33323;52.124;6.018;2023-07-31T11:00:38;8.18;;;6.30;;
47599;SDS011;33323;52.124;6.018;2023-07-31T11:03:09;9.27;;;7.13;;
47599;SDS011;33323;52.124;6.018;2023-07-31T11:08:16;8.68;;;6.13;;
47599;SDS011;33323;52.124;6.018;2023-07-31T11:10:50;10.55;;;7.03;;
47599;SDS011;33323;52.124;6.018;2023-07-31T11:13:33;6.72;;;5.75;;
47599;SDS011;33323;52.124;6.018;2023-07-31T11:16:07;10.87;;;6.97;;
47599;SDS011;33323;52.124;6.018;2023-07-31T11:18:35;8.63;;;6.93;;
47599;SDS011;33323;52.124;6.018;2023-07-31T11:21:08;7.97;;;5.80;;
47599;SDS011;33323;52.124;6.018;2023-07-31T11:23:39;9.27;;;5.95;;
47599;SDS011;33323;52.124;6.018;2023-07-31T11:26:07;8.90;;;5.80;;
47599;SDS011;33323;52.124;6.018;2023-07-31T11:28:34;10.02;;;6.70;;
47599;SDS011;33323;52.124;6.018;2023-07-31T11:31:02;10.18;;;7.00;;
47599;SDS011;33323;52.124;6.018;2023-07-31T11:33:30;7.55;;;6.72;;
47599;SDS011;33323;52.124;6.018;2023-07-31T11:35:57;9.40;;;5.78;;
47599;SDS011;33323;52.124;6.018;2023-07-31T11:40:56;9.05;;;5.95;;
47599;SDS011;33323;52.124;6.018;2023-07-31T11:43:26;8.52;;;6.38;;
47599;SDS011;33323;52.124;6.018;2023-07-31T11:45:57;7.47;;;5.18;;
47599;SDS011;33323;52.124;6.018;2023-07-31T11:48:33;8.15;;;5.70;;
47599;SDS011;33323;52.124;6.018;2023-07-31T11:51:06;6.50;;;4.70;;
47599;SDS011;33323;52.124;6.018;2023-07-31T11:53:47;7.25;;;4.40;;
47599;SDS011;33323;52.124;6.018;2023-07-31T11:56:22;4.25;;;3.85;;
47599;SDS011;33323;52.124;6.018;2023-07-31T11:58:57;5.00;;;3.72;;
47599;SDS011;33323;52.124;6.018;2023-07-31T12:01:28;5.05;;;4.55;;
47599;SDS011;33323;52.124;6.018;2023-07-31T12:03:56;7.53;;;5.10;;
47599;SDS011;33323;52.124;6.018;2023-07-31T12:06:37;7.22;;;5.65;;
47599;SDS011;33323;52.124;6.018;2023-07-31T12:09:05;10.32;;;8.20;;
47599;SDS011;33323;52.124;6.018;2023-07-31T12:11:42;8.25;;;5.68;;
47599;SDS011;33323;52.124;6.018;2023-07-31T12:14:21;8.63;;;5.72;;
47599;SDS011;33323;52.124;6.018;2023-07-31T12:16:57;8.18;;;6.40;;
47599;SDS011;33323;52.124;6.018;2023-07-31T12:19:27;6.03;;;5.25;;
47599;SDS011;33323;52.124;6.018;2023-07-31T12:21:56;8.40;;;5.88;;
47599;SDS011;33323;52.124;6.018;2023-07-31T12:24:28;7.15;;;5.47;;
47599;SDS011;33323;52.124;6.018;2023-07-31T12:26:55;9.85;;;7.07;;
47599;SDS011;33323;52.124;6.018;2023-07-31T12:29:23;5.97;;;5.32;;
47599;SDS011;33323;52.124;6.018;2023-07-31T12:31:50;9.40;;;5.43;;
47599;SDS011;33323;52.124;6.018;2023-07-31T12:34:18;7.53;;;5.57;;
47599;SDS011;33323;52.124;6.018;2023-07-31T12:36:50;6.07;;;5.43;;
47599;SDS011;33323;52.124;6.018;2023-07-31T12:39:20;7.25;;;4.97;;
47599;SDS011;33323;52.124;6.018;2023-07-31T12:41:47;8.23;;;5.43;;
47599;SDS011;33323;52.124;6.018;2023-07-31T12:44:14;8.30;;;5.43;;
47599;SDS011;33323;52.124;6.018;2023-07-31T12:46:42;5.95;;;5.00;;
47599;SDS011;33323;52.124;6.018;2023-07-31T12:49:09;7.32;;;4.78;;
47599;SDS011;33323;52.124;6.018;2023-07-31T12:51:37;8.15;;;5.75;;
47599;SDS011;33323;52.124;6.018;2023-07-31T12:54:04;6.55;;;5.40;;
47599;SDS011;33323;52.124;6.018;2023-07-31T12:56:32;5.65;;;5.05;;
47599;SDS011;33323;52.124;6.018;2023-07-31T12:58:59;7.68;;;4.57;;
47599;SDS011;33323;52.124;6.018;2023-07-31T13:01:27;5.97;;;4.50;;
47599;SDS011;33323;52.124;6.018;2023-07-31T13:03:54;6.55;;;4.47;;
47599;SDS011;33323;52.124;6.018;2023-07-31T13:06:21;5.28;;;4.50;;
47599;SDS011;33323;52.124;6.018;2023-07-31T13:08:49;5.40;;;4.15;;
47599;SDS011;33323;52.124;6.018;2023-07-31T13:11:16;6.20;;;4.53;;
47599;SDS011;33323;52.124;6.018;2023-07-31T13:13:43;5.95;;;4.75;;
47599;SDS011;33323;52.124;6.018;2023-07-31T13:16:10;5.63;;;4.68;;
47599;SDS011;33323;52.124;6.018;2023-07-31T13:18:38;5.93;;;5.32;;
47599;SDS011;33323;52.124;6.018;2023-07-31T13:21:05;6.28;;;5.30;;
47599;SDS011;33323;52.124;6.018;2023-07-31T13:23:32;7.88;;;4.93;;
47599;SDS011;33323;52.124;6.018;2023-07-31T13:26:00;6.55;;;4.60;;
47599;SDS011;33323;52.124;6.018;2023-07-31T13:28:28;7.88;;;5.32;;
47599;SDS011;33323;52.124;6.018;2023-07-31T13:30:56;6.63;;;5.00;;
47599;SDS011;33323;52.124;6.018;2023-07-31T13:33:23;6.63;;;5.32;;
47599;SDS011;33323;52.124;6.018;2023-07-31T13:36:02;7.70;;;5.20;;
47599;SDS011;33323;52.124;6.018;2023-07-31T13:38:30;8.35;;;5.20;;
47599;SDS011;33323;52.124;6.018;2023-07-31T13:40:57;5.93;;;4.68;;
47599;SDS011;33323;52.124;6.018;2023-07-31T13:43:25;8.48;;;5.30;;
47599;SDS011;33323;52.124;6.018;2023-07-31T13:45:52;7.57;;;5.57;;
47599;SDS011;33323;52.124;6.018;2023-07-31T13:48:20;7.28;;;5.43;;
47599;SDS011;33323;52.124;6.018;2023-07-31T13:50:47;7.78;;;5.30;;
47599;SDS011;33323;52.124;6.018;2023-07-31T13:53:14;7.63;;;4.88;;
47599;SDS011;33323;52.124;6.018;2023-07-31T13:55:41;6.30;;;4.65;;
47599;SDS011;33323;52.124;6.018;2023-07-31T13:58:11;6.60;;;5.28;;
47599;SDS011;33323;52.124;6.018;2023-07-31T14:00:39;7.45;;;4.90;;
47599;SDS011;33323;52.124;6.018;2023-07-31T14:03:06;5.82;;;3.95;;
47599;SDS011;33323;52.124;6.018;2023-07-31T14:05:34;6.50;;;4.95;;
47599;SDS011;33323;52.124;6.018;2023-07-31T14:08:01;5.63;;;4.57;;
47599;SDS011;33323;52.124;6.018;2023-07-31T14:10:28;6.68;;;4.00;;
47599;SDS011;33323;52.124;6.018;2023-07-31T14:12:56;5.97;;;4.55;;
47599;SDS011;33323;52.124;6.018;2023-07-31T14:15:23;6.80;;;5.13;;
47599;SDS011;33323;52.124;6.018;2023-07-31T14:17:50;6.35;;;4.57;;
47599;SDS011;33323;52.124;6.018;2023-07-31T14:20:18;8.05;;;4.68;;
47599;SDS011;33323;52.124;6.018;2023-07-31T14:22:46;8.43;;;4.88;;
47599;SDS011;33323;52.124;6.018;2023-07-31T14:25:13;6.75;;;4.72;;
47599;SDS011;33323;52.124;6.018;2023-07-31T14:27:40;5.78;;;4.25;;
47599;SDS011;33323;52.124;6.018;2023-07-31T14:30:08;6.45;;;4.63;;
47599;SDS011;33323;52.124;6.018;2023-07-31T14:32:35;8.10;;;4.53;;
47599;SDS011;33323;52.124;6.018;2023-07-31T14:35:03;8.65;;;5.68;;
47599;SDS011;33323;52.124;6.018;2023-07-31T14:37:40;8.65;;;5.57;;
47599;SDS011;33323;52.124;6.018;2023-07-31T14:40:11;6.90;;;4.55;;
47599;SDS011;33323;52.124;6.018;2023-07-31T14:42:39;7.15;;;4.75;;
47599;SDS011;33323;52.124;6.018;2023-07-31T14:45:07;9.65;;;6.65;;
47599;SDS011;33323;52.124;6.018;2023-07-31T14:47:36;10.20;;;6.22;;
47599;SDS011;33323;52.124;6.018;2023-07-31T14:50:04;7.10;;;4.75;;
47599;SDS011;33323;52.124;6.018;2023-07-31T14:52:32;8.88;;;5.78;;
47599;SDS011;33323;52.124;6.018;2023-07-31T14:55:00;8.60;;;5.28;;
47599;SDS011;33323;52.124;6.018;2023-07-31T14:57:27;7.68;;;5.30;;
47599;SDS011;33323;52.124;6.018;2023-07-31T14:59:54;6.65;;;4.82;;
47599;SDS011;33323;52.124;6.018;2023-07-31T15:02:22;12.35;;;6.05;;